createdAt,value
2023-03-31T00:03:21.908Z,11.01
2023-03-31T00:08:30.505Z,10.94
2023-03-31T00:13:34.967Z,10.94
2023-03-31T00:18:47.789Z,10.87
2023-03-31T00:23:51.691Z,10.87
2023-03-31T00:28:55.422Z,10.83
2023-03-31T00:34:00.510Z,10.75
2023-03-31T00:39:07.037Z,10.74
2023-03-31T00:44:14.951Z,10.74
2023-03-31T00:49:26.495Z,10.67
2023-03-31T00:54:33.462Z,10.65
2023-03-31T00:59:40.598Z,10.70
2023-03-31T01:04:54.733Z,10.69
2023-03-31T01:10:01.150Z,10.61
2023-03-31T01:15:06.072Z,10.68
2023-03-31T01:20:22.066Z,10.66
2023-03-31T01:25:50.358Z,10.68
2023-03-31T01:31:27.255Z,10.65
2023-03-31T01:36:59.983Z,10.64
2023-03-31T01:42:13.195Z,10.61
2023-03-31T01:47:22.933Z,10.53
2023-03-31T01:52:32.703Z,10.53
2023-03-31T01:57:41.614Z,10.54
2023-03-31T02:02:50.206Z,10.50
2023-03-31T02:07:57.530Z,10.46
2023-03-31T02:13:04.775Z,10.51
2023-03-31T02:18:12.216Z,10.51
2023-03-31T02:23:20.696Z,10.54
2023-03-31T02:28:28.416Z,10.48
2023-03-31T02:33:32.277Z,10.40
2023-03-31T02:38:40.661Z,10.45
2023-03-31T02:43:45.606Z,10.40
2023-03-31T02:48:52.487Z,10.31
2023-03-31T02:54:21.510Z,10.42
2023-03-31T02:59:40.661Z,10.42
2023-03-31T03:05:04.759Z,10.38
2023-03-31T03:10:12.970Z,10.34
2023-03-31T03:15:25.766Z,10.38
2023-03-31T03:20:29.579Z,10.44
2023-03-31T03:25:34.154Z,10.32
2023-03-31T03:30:39.594Z,10.34
2023-03-31T03:35:43.467Z,10.27
2023-03-31T03:40:49.627Z,10.30
2023-03-31T03:45:55.485Z,10.22
2023-03-31T03:51:00.891Z,10.15
2023-03-31T03:56:04.830Z,10.12
2023-03-31T04:01:10.060Z,10.11
2023-03-31T04:06:13.852Z,10.10
2023-03-31T04:11:19.370Z,10.08
2023-03-31T04:16:25.568Z,9.98
2023-03-31T04:21:30.667Z,10.00
2023-03-31T04:26:43.152Z,9.90
2023-03-31T04:31:50.694Z,9.88
2023-03-31T04:36:56.171Z,9.91
2023-03-31T04:42:00.849Z,9.89
2023-03-31T04:47:06.976Z,9.90
2023-03-31T04:52:10.695Z,9.87
2023-03-31T04:57:14.425Z,9.88
2023-03-31T05:02:25.087Z,9.81
2023-03-31T05:07:29.351Z,9.80
2023-03-31T05:12:35.381Z,9.79
2023-03-31T05:17:40.450Z,9.83
2023-03-31T05:22:44.252Z,9.78
2023-03-31T05:27:48.733Z,9.83
2023-03-31T05:32:54.276Z,9.88
2023-03-31T05:37:58.154Z,9.86
2023-03-31T05:43:01.880Z,9.84
2023-03-31T05:48:07.423Z,9.84
2023-03-31T05:53:11.945Z,9.84
2023-03-31T05:58:15.647Z,9.81
2023-03-31T06:03:20.742Z,9.73
2023-03-31T06:08:24.941Z,9.82
2023-03-31T06:13:28.656Z,9.77
2023-03-31T06:18:35.257Z,9.68
2023-03-31T06:23:38.994Z,9.69
2023-03-31T06:28:42.997Z,9.72
2023-03-31T06:33:48.614Z,9.69
2023-03-31T06:38:52.744Z,9.75
2023-03-31T06:43:56.493Z,9.71
2023-03-31T06:49:01.590Z,9.77
2023-03-31T06:54:05.363Z,9.78
2023-03-31T06:59:09.049Z,9.84
2023-03-31T07:04:14.081Z,9.84
2023-03-31T07:09:18.639Z,9.84
2023-03-31T07:14:22.710Z,9.84
2023-03-31T07:19:27.892Z,9.98
2023-03-31T07:24:31.597Z,10.08
2023-03-31T07:29:35.435Z,10.24
2023-03-31T07:34:41.606Z,10.31
2023-03-31T07:39:45.423Z,10.31
2023-03-31T07:44:49.344Z,10.32
2023-03-31T07:49:54.899Z,10.35
2023-03-31T07:54:58.693Z,10.34
2023-03-31T08:00:06.514Z,10.40
2023-03-31T08:05:18.514Z,10.46
2023-03-31T08:10:25.932Z,10.60
2023-03-31T08:15:30.115Z,10.68
2023-03-31T08:20:35.237Z,10.74
2023-03-31T08:25:39.529Z,10.88
2023-03-31T08:30:44.034Z,10.98
2023-03-31T08:35:49.174Z,10.98
2023-03-31T08:40:52.890Z,11.15
2023-03-31T08:45:57.177Z,11.34
2023-03-31T08:51:07.003Z,11.51
2023-03-31T08:56:17.778Z,11.63
2023-03-31T09:01:38.112Z,11.69
2023-03-31T09:06:58.812Z,11.68
2023-03-31T09:12:09.904Z,11.66
2023-03-31T09:17:24.216Z,11.77
2023-03-31T09:22:35.854Z,11.88
2023-03-31T09:27:42.637Z,12.08
2023-03-31T09:32:48.606Z,12.11
2023-03-31T09:37:54.825Z,12.08
2023-03-31T09:43:01.812Z,12.30
2023-03-31T09:48:12.405Z,12.50
2023-03-31T09:53:23.144Z,12.45
2023-03-31T09:58:27.142Z,12.30
2023-03-31T10:03:36.758Z,12.59
2023-03-31T10:08:44.197Z,12.48
2023-03-31T10:13:50.382Z,12.47
2023-03-31T10:18:54.115Z,12.44
2023-03-31T10:24:02.653Z,12.44
2023-03-31T10:29:12.678Z,12.45
2023-03-31T10:34:17.700Z,12.52
2023-03-31T10:39:29.537Z,12.45
2023-03-31T10:44:36.909Z,12.43
2023-03-31T10:49:42.572Z,12.52
2023-03-31T10:54:54.095Z,12.67
2023-03-31T11:00:13.208Z,12.68
2023-03-31T11:05:23.301Z,12.61
2023-03-31T11:10:54.856Z,12.65
2023-03-31T11:16:08.064Z,12.59
2023-03-31T11:21:22.021Z,12.60
2023-03-31T11:26:36.309Z,12.78
2023-03-31T11:31:50.808Z,12.91
2023-03-31T11:37:18.337Z,13.07
2023-03-31T11:42:28.666Z,12.78
2023-03-31T11:47:38.671Z,12.63
2023-03-31T11:52:48.345Z,12.50
2023-03-31T11:58:02.248Z,12.46
2023-03-31T12:03:12.395Z,12.51
2023-03-31T12:08:19.809Z,12.38
2023-03-31T12:13:42.064Z,12.49
2023-03-31T12:18:58.313Z,12.37
2023-03-31T12:24:02.105Z,12.47
2023-03-31T12:29:16.815Z,12.53
2023-03-31T12:34:23.298Z,12.72
2023-03-31T12:39:39.742Z,12.74
2023-03-31T12:44:57.721Z,12.58
2023-03-31T12:50:16.793Z,12.64
2023-03-31T12:55:39.033Z,12.50
2023-03-31T13:01:06.781Z,12.45
2023-03-31T13:06:12.198Z,12.15
2023-03-31T13:11:16.386Z,11.93
2023-03-31T13:16:22.098Z,11.86
2023-03-31T13:21:26.476Z,11.60
2023-03-31T13:26:48.065Z,11.60
2023-03-31T13:32:19.184Z,11.52
2023-03-31T13:37:38.590Z,11.64
2023-03-31T13:43:06.232Z,11.71
2023-03-31T13:48:37.620Z,11.85
2023-03-31T13:54:06.442Z,12.10
2023-03-31T13:59:21.953Z,12.12
2023-03-31T14:04:52.248Z,12.14
2023-03-31T14:09:58.310Z,12.06
2023-03-31T14:15:02.114Z,12.23
2023-03-31T14:20:27.508Z,12.09
2023-03-31T14:25:42.828Z,11.90
2023-03-31T14:30:58.769Z,11.89
2023-03-31T14:36:15.970Z,11.48
2023-03-31T14:41:29.416Z,11.49
2023-03-31T14:46:38.010Z,11.40
2023-03-31T14:51:45.154Z,11.21
2023-03-31T14:56:52.756Z,11.19
2023-03-31T15:01:59.408Z,11.26
2023-03-31T15:07:06.169Z,11.36
2023-03-31T15:12:16.155Z,11.17
2023-03-31T15:17:22.490Z,11.07
2023-03-31T15:22:29.824Z,10.99
2023-03-31T15:27:38.120Z,10.94
2023-03-31T15:32:42.274Z,10.88
2023-03-31T15:37:47.743Z,10.81
2023-03-31T15:43:06.071Z,10.81
2023-03-31T15:48:21.702Z,10.78
2023-03-31T15:53:31.184Z,10.77
2023-03-31T15:58:54.069Z,10.82
2023-03-31T16:03:58.256Z,10.77
2023-03-31T16:09:08.334Z,10.78
2023-03-31T16:14:20.060Z,10.72
2023-03-31T16:19:27.457Z,10.60
2023-03-31T16:24:35.999Z,10.54
2023-03-31T16:29:41.043Z,10.51
2023-03-31T16:34:56.899Z,10.61
2023-03-31T16:40:02.088Z,10.56
2023-03-31T16:50:15.305Z,10.49
2023-03-31T16:55:20.623Z,10.30
2023-03-31T17:00:24.579Z,10.19
2023-03-31T17:10:34.460Z,10.21
2023-03-31T17:15:38.868Z,10.20
2023-03-31T17:20:42.703Z,10.18
2023-03-31T17:25:49.722Z,10.16
2023-03-31T17:30:53.545Z,10.06
2023-03-31T17:35:58.799Z,10.07
2023-03-31T17:41:05.837Z,10.03
2023-03-31T17:46:12.716Z,9.99
2023-03-31T17:51:18.508Z,9.97
2023-03-31T17:56:23.829Z,9.93
2023-03-31T18:01:27.688Z,9.88
2023-03-31T18:06:31.795Z,9.89
2023-03-31T18:11:37.339Z,9.91
2023-03-31T18:16:41.662Z,9.91
2023-03-31T18:21:45.398Z,9.87
2023-03-31T18:26:50.430Z,9.87
2023-03-31T18:31:54.351Z,9.91
2023-03-31T18:36:58.176Z,9.95
2023-03-31T18:42:04.133Z,9.76
2023-03-31T18:47:08.054Z,9.76
2023-03-31T18:52:11.889Z,9.79
2023-03-31T18:57:17.652Z,9.73
2023-03-31T19:02:21.960Z,9.69
2023-03-31T19:07:25.681Z,9.74
2023-03-31T19:12:30.807Z,9.76
2023-03-31T19:17:34.540Z,9.72
2023-03-31T19:22:38.369Z,9.66
2023-03-31T19:27:44.480Z,9.69
2023-03-31T19:32:49.832Z,9.69
2023-03-31T19:37:53.554Z,9.66
2023-03-31T19:42:58.752Z,9.71
2023-03-31T19:48:02.627Z,9.63
2023-03-31T19:53:07.071Z,9.56
2023-03-31T19:58:12.653Z,9.60
2023-03-31T20:03:16.516Z,9.58
2023-03-31T20:08:20.468Z,9.63
2023-03-31T20:13:25.611Z,9.59
2023-03-31T20:18:29.668Z,9.52
2023-03-31T20:23:34.148Z,9.47
2023-03-31T20:28:40.179Z,9.46
2023-03-31T20:33:44.617Z,9.48
2023-03-31T20:38:51.307Z,9.43
2023-03-31T20:43:56.974Z,9.49
2023-03-31T20:49:00.947Z,9.38
2023-03-31T20:54:05.637Z,9.43
2023-03-31T20:59:12.609Z,9.43
2023-03-31T21:04:16.961Z,9.32
2023-03-31T21:09:20.938Z,9.29
2023-03-31T21:14:26.032Z,9.30
2023-03-31T21:19:29.791Z,9.30
2023-03-31T21:24:33.999Z,9.27
2023-03-31T21:29:39.498Z,9.31
2023-03-31T21:34:43.457Z,9.37
2023-03-31T21:39:47.430Z,9.24
2023-03-31T21:44:58.809Z,9.32
2023-03-31T21:50:02.647Z,9.32
2023-03-31T21:55:06.938Z,9.22
2023-03-31T22:00:15.742Z,9.26
2023-03-31T22:05:19.792Z,9.24
2023-03-31T22:10:23.595Z,9.28
2023-03-31T22:15:28.764Z,9.30
2023-03-31T22:20:32.793Z,9.27
2023-03-31T22:25:36.813Z,9.28
2023-03-31T22:30:41.984Z,9.20
2023-03-31T22:35:45.805Z,9.22
2023-03-31T22:40:49.618Z,9.19
2023-03-31T22:45:54.706Z,9.23
2023-03-31T22:50:58.579Z,9.24
2023-03-31T22:56:07.400Z,9.09
2023-03-31T23:01:15.704Z,9.12
2023-03-31T23:06:19.410Z,9.14
2023-03-31T23:11:23.049Z,9.18
2023-03-31T23:16:28.102Z,9.13
2023-03-31T23:21:32.492Z,9.10
2023-03-31T23:26:36.203Z,9.16
2023-03-31T23:31:41.478Z,9.15
2023-03-31T23:36:45.412Z,9.17
2023-03-31T23:41:49.106Z,9.12
2023-03-31T23:46:54.226Z,9.16
2023-03-31T23:51:58.127Z,9.12
2023-03-31T23:57:01.897Z,9.15
